Главная страница
METAR-TAF:

METAR-TAF

Аэропорты :

Mora–Siljan

Мура, Швеция

широта: 60-57-31N, долгота: 14-30-40E, высота над уровнем моря: 193 м

Текущие метеонаблюдения

Эта сводка был подготовлена 28 минут назад, в 12:20 UTC
Ветер 7 Узел от восточный
Температура -2°C
Влажность 100%
Давление 974 hPa
Видимость: 1000 м
небольшой снег

METAR: ESKM 081220Z AUTO 09007KT 1000 R16/1800N R34/1900N -SN FEW005/// BKN008/// OVC010/// M02/M02 Q0974

Время: 13:48 (12:48 UTC)


TAF: отсутствует

Метеонаблюдения и прогнозы для более 4000 аэропортов (сводки METAR и TAF).

Имеющиеся станции представлены на карте желтыми и красными точками.

Чтобы увидеть название станции, наведите на нее мышь.

Затем щелкните, чтобы увидеть метеонаблюдения и метеопрогнозы.

Управление картой: чтобы увеличить масштаб, щелкните зеленые кнопки с черным крестиком; чтобы уменьшить масштаб, щелкните зеленую кнопку с тире; для просмотра соседних карт щелкайте зеленые стрелки.


METAR-TAF: